Time;durP1;ratioP1;P1;durP2;ratioP2;P2;SDS_P1;SDS_P2;PMS_P1;PMS_P2;Temp;Humidity;BMP_temperature;BMP_pressure;BME280_temperature;BME280_humidity;BME280_pressure;Samples;Min_cycle;Max_cycle;Signal;HPM_P1;HPM_P2
2022/03/23 00:00:47;;;;;;;;;74.00;60.25;12.40;29.20;;;;;;4957745;28;8781;-64
2022/03/23 00:03:15;;;;;;;;;74.25;57.75;12.30;29.30;;;;;;4957699;28;8772;-64
2022/03/23 00:05:41;;;;;;;;;67.00;55.00;12.40;28.70;;;;;;4957515;28;8808;-65
2022/03/23 00:08:08;;;;;;;;;67.50;55.00;12.10;28.90;;;;;;4957563;28;9511;-64
2022/03/23 00:10:34;;;;;;;;;68.75;56.25;12.40;28.70;;;;;;4957529;28;8883;-65
2022/03/23 00:13:02;;;;;;;;;74.00;58.50;12.10;29.10;;;;;;4957828;28;9454;-65
2022/03/23 00:15:28;;;;;;;;;75.25;59.00;11.80;29.40;;;;;;4957424;28;8768;-63
2022/03/23 00:17:54;;;;;;;;;75.00;59.00;12.00;29.30;;;;;;4957443;28;8884;-65
2022/03/23 00:20:20;;;;;;;;;67.25;53.50;11.50;29.60;;;;;;4957213;28;9494;-66
2022/03/23 00:22:46;;;;;;;;;79.00;63.50;11.50;31.10;;;;;;4957142;28;8780;-63
2022/03/23 00:25:12;;;;;;;;;77.50;62.00;11.90;29.50;;;;;;4957352;28;8784;-63
2022/03/23 00:27:38;;;;;;;;;72.75;59.00;11.90;29.30;;;;;;4957346;28;8875;-66
2022/03/23 00:30:05;;;;;;;;;76.75;61.00;11.70;29.70;;;;;;4957213;28;8899;-64
2022/03/23 00:32:31;;;;;;;;;70.25;57.25;11.20;30.10;;;;;;4956931;28;8760;-64
2022/03/23 00:34:57;;;;;;;;;78.00;60.50;11.50;29.90;;;;;;4956908;28;8796;-65
2022/03/23 00:37:23;;;;;;;;;76.00;60.75;11.80;29.60;;;;;;4956630;28;8775;-64
2022/03/23 00:39:50;;;;;;;;;73.25;58.00;12.30;28.90;;;;;;4956453;28;8825;-65
2022/03/23 00:42:16;;;;;;;;;73.00;59.50;12.00;29.20;;;;;;4956772;28;8757;-64
2022/03/23 00:44:43;;;;;;;;;70.75;55.50;11.90;29.20;;;;;;4956342;28;8827;-63
2022/03/23 00:47:09;;;;;;;;;79.75;66.75;11.60;29.80;;;;;;4956310;28;8784;-65
2022/03/23 00:49:37;;;;;;;;;82.00;62.00;11.60;29.70;;;;;;4956696;28;8777;-66
2022/03/23 00:52:05;;;;;;;;;77.25;59.50;11.80;29.60;;;;;;4956649;28;8764;-63
2022/03/23 00:54:34;;;;;;;;;80.50;64.00;12.20;29.20;;;;;;4956035;28;8772;-64
2022/03/23 00:57:01;;;;;;;;;75.00;60.00;11.90;29.30;;;;;;4956598;28;8851;-63
2022/03/23 00:59:27;;;;;;;;;76.75;61.50;11.90;29.30;;;;;;4956442;28;8753;-63
2022/03/23 01:01:53;;;;;;;;;74.50;59.50;12.20;29.00;;;;;;4956145;28;9470;-66
2022/03/23 01:04:20;;;;;;;;;73.75;57.50;12.30;28.80;;;;;;4956212;28;8804;-65
2022/03/23 01:06:46;;;;;;;;;78.50;64.25;12.50;28.80;;;;;;4956354;28;9481;-64
2022/03/23 01:09:13;;;;;;;;;80.25;66.50;12.40;28.70;;;;;;4956576;28;8769;-64
2022/03/23 01:11:39;;;;;;;;;80.25;67.50;12.50;28.70;;;;;;4956270;28;8787;-65
2022/03/23 01:14:08;;;;;;;;;82.50;71.50;12.60;28.80;;;;;;4956258;28;8765;-65
2022/03/23 01:16:34;;;;;;;;;86.50;75.50;12.60;28.80;;;;;;4956225;28;8756;-64
2022/03/23 01:19:00;;;;;;;;;84.50;70.75;12.90;28.50;;;;;;4956325;28;8811;-64
2022/03/23 01:21:26;;;;;;;;;88.50;76.25;12.90;28.70;;;;;;4956117;28;8867;-65
2022/03/23 01:23:52;;;;;;;;;88.00;72.75;12.80;28.50;;;;;;4938848;28;8803;-64
2022/03/23 01:26:17;;;;;;;;;84.50;70.75;12.90;28.30;;;;;;4955711;28;8764;-65
2022/03/23 01:28:43;;;;;;;;;98.25;93.00;12.90;28.20;;;;;;4955811;28;8772;-64
2022/03/23 01:31:10;;;;;;;;;86.50;76.50;12.90;29.00;;;;;;4955871;28;8883;-64
2022/03/23 01:33:36;;;;;;;;;109.25;99.00;12.10;29.40;;;;;;4955937;28;8772;-65
2022/03/23 01:36:02;;;;;;;;;120.75;110.75;11.70;31.00;;;;;;4955711;28;8839;-65
2022/03/23 01:38:28;;;;;;;;;123.75;117.50;11.80;30.70;;;;;;4956007;28;8800;-65
2022/03/23 01:40:56;;;;;;;;;128.50;117.25;12.10;31.10;;;;;;4956070;28;8843;-64
2022/03/23 01:43:21;;;;;;;;;139.25;122.25;11.70;31.50;;;;;;4956005;28;8804;-67
2022/03/23 01:45:47;;;;;;;;;149.25;132.75;11.70;31.70;;;;;;4955858;28;8780;-64
2022/03/23 01:48:13;;;;;;;;;150.25;134.50;11.20;32.10;;;;;;4956085;28;8792;-67
2022/03/23 01:50:40;;;;;;;;;144.75;134.25;11.10;33.00;;;;;;4956192;28;8936;-64
2022/03/23 01:53:06;;;;;;;;;153.50;136.50;11.50;32.20;;;;;;4956023;28;8768;-64
2022/03/23 01:55:33;;;;;;;;;158.00;143.75;11.40;32.40;;;;;;4955485;28;8781;-65
2022/03/23 01:57:59;;;;;;;;;173.25;159.50;11.60;32.20;;;;;;4955782;28;8761;-64
2022/03/23 02:00:28;;;;;;;;;144.50;132.50;11.50;31.90;;;;;;4956164;28;8768;-65
2022/03/23 02:02:54;;;;;;;;;156.00;143.50;11.60;32.20;;;;;;4956112;29;8776;-64
2022/03/23 02:05:20;;;;;;;;;160.00;146.75;11.60;32.20;;;;;;4956766;28;9505;-65
2022/03/23 02:07:46;;;;;;;;;145.75;144.50;11.60;32.60;;;;;;4960030;28;8772;-65
2022/03/23 02:10:12;;;;;;;;;150.00;140.75;11.50;32.60;;;;;;4959466;28;8784;-65
2022/03/23 02:12:38;;;;;;;;;133.75;126.50;11.60;32.30;;;;;;4959573;28;8780;-65
2022/03/23 02:15:17;;;;;;;;;89.25;73.25;11.50;32.50;;;;;;4959618;28;8773;-65
2022/03/23 02:17:44;;;;;;;;;96.25;84.25;10.80;31.90;;;;;;4959639;28;8800;-65
2022/03/23 02:20:11;;;;;;;;;84.75;72.50;10.90;32.10;;;;;;4959456;28;8777;-64
2022/03/23 02:22:37;;;;;;;;;79.25;63.00;11.00;31.00;;;;;;4959565;28;8792;-65
2022/03/23 02:25:06;;;;;;;;;80.00;63.00;10.60;31.70;;;;;;4959649;28;9585;-64
2022/03/23 02:27:32;;;;;;;;;81.50;63.75;10.60;31.70;;;;;;4959270;28;8788;-65
2022/03/23 02:29:59;;;;;;;;;84.50;69.25;10.60;31.40;;;;;;4959643;28;8761;-65
2022/03/23 02:32:25;;;;;;;;;90.00;76.00;10.20;32.40;;;;;;4959337;28;8780;-65
2022/03/23 02:34:51;;;;;;;;;84.25;74.25;10.70;31.60;;;;;;4959217;28;8792;-64
2022/03/23 02:37:16;;;;;;;;;89.50;82.75;10.90;31.20;;;;;;4959055;28;8780;-65
2022/03/23 02:39:43;;;;;;;;;93.75;86.25;11.30;30.50;;;;;;4959052;28;8951;-65
2022/03/23 02:42:08;;;;;;;;;100.75;92.25;11.80;30.00;;;;;;4959169;28;8796;-65
2022/03/23 02:44:34;;;;;;;;;86.00;76.25;11.50;30.00;;;;;;4959002;28;8875;-66
2022/03/23 02:47:01;;;;;;;;;86.50;75.75;11.60;30.10;;;;;;4959056;28;8769;-64
2022/03/23 02:49:27;;;;;;;;;85.75;73.75;11.20;30.50;;;;;;4959103;28;8815;-66
2022/03/23 02:51:53;;;;;;;;;76.50;61.00;10.70;31.30;;;;;;4958375;28;9387;-65
2022/03/23 03:03:09;;;;;;;;;83.25;68.00;9.90;33.40;;;;;;4936684;28;8780;-65
2022/03/23 03:05:35;;;;;;;;;93.75;81.50;10.50;32.40;;;;;;4958527;28;8800;-65
2022/03/23 03:10:45;;;;;;;;;85.75;70.50;10.30;32.80;;;;;;4958758;28;9407;-66
2022/03/23 03:13:11;;;;;;;;;91.00;74.25;10.60;32.00;;;;;;4958800;28;8802;-66
2022/03/23 03:15:36;;;;;;;;;87.50;69.75;10.70;31.60;;;;;;4958578;28;8947;-62
2022/03/23 03:18:02;;;;;;;;;81.25;63.25;11.20;30.70;;;;;;4958422;28;9458;-65
2022/03/23 03:20:28;;;;;;;;;72.75;58.00;11.10;30.70;;;;;;4958189;28;8793;-65
2022/03/23 03:22:54;;;;;;;;;77.25;59.25;10.50;31.40;;;;;;4958170;28;8776;-64
2022/03/23 03:25:23;;;;;;;;;78.00;61.50;10.20;32.30;;;;;;4958295;28;8923;-64
2022/03/23 03:27:49;;;;;;;;;80.00;61.75;10.10;32.50;;;;;;4958953;28;8772;-65
2022/03/23 03:30:17;;;;;;;;;81.75;63.50;10.10;32.80;;;;;;4958105;28;8859;-66
2022/03/23 03:32:44;;;;;;;;;87.75;74.75;10.80;32.10;;;;;;4958369;28;8855;-66
2022/03/23 03:35:10;;;;;;;;;86.75;73.00;10.30;33.10;;;;;;4958131;28;8780;-65
2022/03/23 03:37:37;;;;;;;;;91.75;82.50;9.90;34.30;;;;;;4958003;28;8795;-65
2022/03/23 03:40:07;;;;;;;;;97.75;87.50;9.70;34.70;;;;;;4958413;28;8757;-66
2022/03/23 03:42:34;;;;;;;;;89.00;81.00;9.50;35.30;;;;;;4958046;28;8772;-64
2022/03/23 03:45:01;;;;;;;;;99.50;88.25;9.70;34.90;;;;;;4958243;28;8928;-65
2022/03/23 03:47:27;;;;;;;;;93.75;85.75;10.00;34.70;;;;;;4957899;28;8903;-65
2022/03/23 03:49:53;;;;;;;;;123.25;113.75;10.20;34.10;;;;;;4957962;28;8883;-65
2022/03/23 03:52:20;;;;;;;;;131.00;122.50;9.30;36.60;;;;;;4957806;28;8761;-65
2022/03/23 03:54:46;;;;;;;;;142.00;132.25;8.60;38.60;;;;;;4958055;28;8780;-67
2022/03/23 03:57:12;;;;;;;;;160.50;145.75;8.00;40.60;;;;;;4957647;28;8855;-65
2022/03/23 03:59:38;;;;;;;;;148.50;139.75;7.70;42.40;;;;;;4957741;28;9444;-64
2022/03/23 04:02:04;;;;;;;;;152.75;144.75;7.40;42.90;;;;;;4957793;28;8803;-65
2022/03/23 04:04:30;;;;;;;;;162.00;150.00;7.10;43.90;;;;;;4957963;28;8827;-64
2022/03/23 04:06:56;;;;;;;;;161.00;147.75;6.80;44.70;;;;;;4957646;28;8842;-66
2022/03/23 04:09:22;;;;;;;;;152.75;138.75;7.00;44.10;;;;;;4957503;28;8835;-64
2022/03/23 04:11:48;;;;;;;;;163.00;146.00;7.10;44.50;;;;;;4957593;28;8780;-64
2022/03/23 04:14:15;;;;;;;;;141.75;133.75;7.00;44.20;;;;;;4957632;28;8777;-66
2022/03/23 04:16:41;;;;;;;;;121.25;112.00;7.70;42.10;;;;;;4957310;28;8894;-65
2022/03/23 04:19:07;;;;;;;;;128.75;113.75;8.50;39.50;;;;;;4957911;28;8822;-66
2022/03/23 04:21:33;;;;;;;;;126.00;113.00;8.40;39.30;;;;;;4957272;28;8784;-65
2022/03/23 04:23:59;;;;;;;;;128.50;114.25;8.80;38.30;;;;;;4957196;28;8815;-65
2022/03/23 04:26:25;;;;;;;;;132.75;116.00;8.60;38.50;;;;;;4957151;28;8764;-67
2022/03/23 04:28:51;;;;;;;;;118.75;109.50;8.20;40.00;;;;;;4956501;28;8784;-65
2022/03/23 04:31:17;;;;;;;;;133.25;118.75;8.00;40.50;;;;;;4957422;28;9546;-64
2022/03/23 04:33:43;;;;;;;;;106.25;98.25;7.90;41.00;;;;;;4957013;28;8795;-65
2022/03/23 04:36:09;;;;;;;;;106.00;96.50;8.50;39.30;;;;;;4957247;28;8757;-65
2022/03/23 04:38:35;;;;;;;;;113.50;103.50;8.20;40.00;;;;;;4959259;28;8784;-65
2022/03/23 04:41:04;;;;;;;;;120.25;109.75;8.70;38.90;;;;;;4968972;28;8758;-64
2022/03/23 04:43:31;;;;;;;;;118.50;106.00;8.20;40.50;;;;;;4955894;28;8784;-65
2022/03/23 04:45:57;;;;;;;;;116.75;110.50;7.50;42.20;;;;;;4956997;28;8883;-64
2022/03/23 04:48:23;;;;;;;;;98.00;90.25;7.00;43.90;;;;;;4957146;28;8927;-66
2022/03/23 04:50:49;;;;;;;;;98.75;87.00;6.90;44.00;;;;;;4956790;28;8781;-64
2022/03/23 04:53:15;;;;;;;;;103.00;96.25;7.20;43.10;;;;;;4956713;28;8801;-66
2022/03/23 04:55:41;;;;;;;;;112.00;101.00;7.60;42.10;;;;;;4957679;28;8878;-67
2022/03/23 04:58:07;;;;;;;;;101.50;94.75;7.60;42.10;;;;;;4968834;28;8904;-66
2022/03/23 05:00:34;;;;;;;;;106.00;96.00;7.50;42.20;;;;;;4970540;28;8780;-68
2022/03/23 05:03:01;;;;;;;;;110.25;101.50;8.00;41.50;;;;;;4956796;28;8800;-64
2022/03/23 05:05:27;;;;;;;;;118.25;108.25;8.20;40.80;;;;;;4956412;28;8808;-64
2022/03/23 05:07:53;;;;;;;;;121.00;100.50;7.90;41.90;;;;;;4956865;28;9459;-65
2022/03/23 05:10:19;;;;;;;;;133.50;122.50;8.40;40.50;;;;;;4956441;28;8784;-64
2022/03/23 05:12:46;;;;;;;;;150.25;136.25;7.60;42.70;;;;;;4956692;28;8769;-62
2022/03/23 05:15:14;;;;;;;;;121.25;116.25;7.80;42.20;;;;;;4956262;28;8823;-65
2022/03/23 05:17:41;;;;;;;;;150.00;133.75;7.50;43.80;;;;;;4956357;28;8808;-67
2022/03/23 05:20:08;;;;;;;;;125.50;120.50;7.70;43.10;;;;;;4956244;28;8777;-62
2022/03/23 05:22:35;;;;;;;;;112.25;102.25;7.60;42.60;;;;;;4956442;28;8784;-65
2022/03/23 05:25:01;;;;;;;;;118.50;103.50;7.60;42.10;;;;;;4961177;28;8821;-64
2022/03/23 05:27:27;;;;;;;;;115.50;102.25;8.00;41.40;;;;;;4975689;28;9539;-64
2022/03/23 05:29:54;;;;;;;;;133.50;117.25;8.20;40.60;;;;;;4957242;28;8955;-66
2022/03/23 05:32:20;;;;;;;;;130.00;117.75;7.80;42.00;;;;;;4960339;28;8885;-66
2022/03/23 05:34:47;;;;;;;;;131.25;118.50;7.40;43.30;;;;;;4947756;28;8786;-66
2022/03/23 05:37:13;;;;;;;;;139.75;127.00;7.50;43.30;;;;;;4955806;28;8803;-64
2022/03/23 05:39:39;;;;;;;;;114.75;105.50;8.20;41.40;;;;;;4962176;28;8967;-65
2022/03/23 05:42:07;;;;;;;;;115.25;112.00;8.60;40.20;;;;;;4958934;28;8790;-67
2022/03/23 05:44:34;;;;;;;;;140.00;132.25;8.40;40.20;;;;;;4975431;28;8814;-68
2022/03/23 05:46:59;;;;;;;;;124.50;114.00;8.50;40.70;;;;;;4975185;28;8921;-68
2022/03/23 05:49:25;;;;;;;;;130.00;121.75;8.90;39.50;;;;;;4975199;28;8810;-68
2022/03/23 05:51:52;;;;;;;;;98.00;86.75;9.40;38.60;;;;;;4975486;28;8771;-66
2022/03/23 05:54:18;;;;;;;;;113.75;103.50;9.70;36.50;;;;;;4975508;28;8791;-67
2022/03/23 05:56:44;;;;;;;;;137.50;121.75;10.00;36.30;;;;;;4975791;28;8766;-67
2022/03/23 05:59:10;;;;;;;;;116.00;96.75;9.90;37.10;;;;;;4975738;28;8809;-64
2022/03/23 06:01:36;;;;;;;;;166.00;152.00;9.90;36.90;;;;;;4970333;28;8782;-62
2022/03/23 06:04:02;;;;;;;;;165.25;151.00;8.90;40.00;;;;;;4959910;28;8829;-63
2022/03/23 06:06:28;;;;;;;;;144.50;134.25;8.30;41.80;;;;;;4975580;28;9421;-63
2022/03/23 06:08:54;;;;;;;;;156.00;143.75;7.80;43.40;;;;;;4966630;28;8796;-62
2022/03/23 06:11:20;;;;;;;;;150.00;138.25;7.80;43.40;;;;;;4956019;29;8875;-62
2022/03/23 06:13:46;;;;;;;;;132.75;126.00;7.90;43.40;;;;;;4956126;29;8773;-64
2022/03/23 06:16:11;;;;;;;;;123.75;113.00;8.20;43.10;;;;;;4956003;29;8815;-61
2022/03/23 06:18:38;;;;;;;;;152.75;138.75;8.50;42.60;;;;;;4956436;29;8931;-63
2022/03/23 06:21:04;;;;;;;;;158.50;144.00;8.80;41.80;;;;;;4956238;29;9443;-65
2022/03/23 06:23:31;;;;;;;;;148.75;129.75;8.70;41.70;;;;;;4955921;29;8815;-65
2022/03/23 06:25:57;;;;;;;;;134.50;129.00;9.30;40.30;;;;;;4955808;29;8811;-63
2022/03/23 06:28:23;;;;;;;;;141.75;128.50;9.20;39.60;;;;;;4955925;29;8780;-63
2022/03/23 06:30:50;;;;;;;;;141.50;133.50;9.70;39.00;;;;;;4955868;29;8860;-63
2022/03/23 06:33:17;;;;;;;;;153.50;140.25;10.30;38.00;;;;;;4955935;29;8855;-66
2022/03/23 06:35:44;;;;;;;;;138.00;128.50;10.70;37.10;;;;;;4955901;29;8788;-64
2022/03/23 06:38:09;;;;;;;;;123.25;114.00;11.00;36.50;;;;;;4955679;28;8811;-68
2022/03/23 06:40:35;;;;;;;;;104.25;96.00;11.20;35.40;;;;;;4956082;29;8769;-65
2022/03/23 06:43:01;;;;;;;;;105.75;99.75;11.30;34.20;;;;;;4955854;29;9509;-67
2022/03/23 06:45:27;;;;;;;;;100.75;93.25;11.50;34.00;;;;;;4955598;29;8808;-67
2022/03/23 06:47:52;;;;;;;;;98.50;87.50;11.40;34.50;;;;;;4955800;29;8855;-65
2022/03/23 06:50:18;;;;;;;;;88.25;77.25;10.70;35.10;;;;;;4955265;28;8764;-66
2022/03/23 06:52:44;;;;;;;;;83.50;68.75;10.70;34.70;;;;;;4958841;28;8761;-68
2022/03/23 06:55:10;;;;;;;;;87.00;79.25;10.80;34.80;;;;;;4959398;28;8804;-65
2022/03/23 06:57:36;;;;;;;;;93.75;87.50;10.60;34.90;;;;;;4959440;28;8757;-65
2022/03/23 07:00:12;;;;;;;;;92.50;85.75;10.20;35.80;;;;;;4959566;28;8777;-65
2022/03/23 07:02:46;;;;;;;;;87.75;73.25;10.70;35.50;;;;;;4968384;28;8786;-67
2022/03/23 07:05:14;;;;;;;;;81.50;68.00;10.40;35.30;;;;;;4968526;28;8892;-67
2022/03/23 07:10:25;;;;;;;;;79.50;61.50;10.40;35.30;;;;;;4967805;28;8777;-65
2022/03/23 07:12:51;;;;;;;;;70.25;56.50;10.60;35.40;;;;;;4959074;28;8765;-65
2022/03/23 07:15:17;;;;;;;;;73.00;57.75;10.60;34.70;;;;;;4963488;28;8878;-66
2022/03/23 07:17:42;;;;;;;;;64.75;52.75;10.30;34.90;;;;;;4969447;28;8820;-65
2022/03/23 07:20:09;;;;;;;;;68.50;55.00;10.10;35.30;;;;;;4965750;28;8780;-64
2022/03/23 07:22:35;;;;;;;;;73.25;58.25;10.30;35.10;;;;;;4970980;28;8901;-66
2022/03/23 07:25:02;;;;;;;;;68.25;54.50;10.30;35.00;;;;;;4969699;28;8929;-67
2022/03/23 07:27:27;;;;;;;;;65.50;53.00;10.40;34.50;;;;;;4964838;28;8864;-64
2022/03/23 07:29:53;;;;;;;;;74.50;58.50;10.80;34.30;;;;;;4969766;28;8798;-65
2022/03/23 07:32:19;;;;;;;;;67.25;54.00;11.40;33.20;;;;;;4961016;28;8804;-67
2022/03/23 07:34:45;;;;;;;;;72.50;56.25;11.10;33.20;;;;;;4967306;28;8765;-67
2022/03/23 07:37:11;;;;;;;;;64.00;52.00;11.40;32.50;;;;;;4958514;28;8796;-68
2022/03/23 07:39:37;;;;;;;;;62.75;51.00;11.60;32.30;;;;;;4961457;28;8792;-67
2022/03/23 07:42:05;;;;;;;;;64.50;52.00;11.90;31.90;;;;;;4966613;28;9451;-67
2022/03/23 07:44:32;;;;;;;;;68.75;53.25;12.00;31.10;;;;;;4960864;28;8809;-65
2022/03/23 07:46:59;;;;;;;;;64.25;52.00;11.70;31.50;;;;;;4967215;28;8768;-68
2022/03/23 07:49:24;;;;;;;;;64.00;51.75;11.80;31.50;;;;;;4959370;28;8784;-64
2022/03/23 07:51:50;;;;;;;;;58.75;49.00;12.20;30.60;;;;;;4960110;28;8795;-64
2022/03/23 07:54:16;;;;;;;;;61.25;50.50;12.10;30.40;;;;;;4958418;28;8788;-63
2022/03/23 07:56:42;;;;;;;;;54.00;44.00;12.10;30.90;;;;;;4974996;28;8743;-65
2022/03/23 07:59:08;;;;;;;;;65.00;53.25;12.50;30.60;;;;;;4974950;28;8912;-65
2022/03/23 08:01:34;;;;;;;;;62.50;50.25;12.80;30.00;;;;;;4972168;28;9403;-70
2022/03/23 08:04:00;;;;;;;;;61.75;49.25;12.40;30.60;;;;;;4974831;28;8864;-68
2022/03/23 08:06:28;;;;;;;;;58.50;48.75;12.50;30.60;;;;;;4973039;28;8750;-67
2022/03/23 08:08:54;;;;;;;;;64.50;53.25;12.80;29.70;;;;;;4976087;28;8809;-69
2022/03/23 08:11:21;;;;;;;;;58.50;47.00;12.50;29.60;;;;;;4974118;28;8771;-65
2022/03/23 08:13:47;;;;;;;;;64.50;52.25;12.60;29.50;;;;;;4973117;28;8778;-64
2022/03/23 08:16:13;;;;;;;;;63.75;50.00;12.70;29.60;;;;;;4975699;28;8771;-68
2022/03/23 08:18:39;;;;;;;;;62.00;52.00;12.50;30.10;;;;;;4975291;28;8782;-70
2022/03/23 08:21:05;;;;;;;;;58.50;49.75;12.30;30.50;;;;;;4975643;28;8850;-64
2022/03/23 08:23:32;;;;;;;;;58.50;49.25;12.50;30.20;;;;;;4976045;28;9424;-64
2022/03/23 08:25:58;;;;;;;;;59.00;48.00;13.00;30.20;;;;;;4973552;28;8814;-63
2022/03/23 08:28:24;;;;;;;;;56.50;48.00;12.40;29.10;;;;;;4971079;28;8787;-63
2022/03/23 08:30:50;;;;;;;;;65.25;53.00;12.60;29.40;;;;;;4973758;28;8787;-63
2022/03/23 08:33:16;;;;;;;;;63.00;50.50;12.60;29.90;;;;;;4973995;28;8778;-63
2022/03/23 08:35:42;;;;;;;;;61.75;50.25;12.80;29.80;;;;;;4975164;28;8785;-63
2022/03/23 08:38:08;;;;;;;;;60.75;50.00;12.90;29.60;;;;;;4975529;28;8798;-63
2022/03/23 08:40:35;;;;;;;;;62.50;52.00;12.80;29.60;;;;;;4976570;28;8863;-63
2022/03/23 08:43:01;;;;;;;;;62.75;50.00;13.00;29.60;;;;;;4976817;28;8763;-63
2022/03/23 08:45:28;;;;;;;;;63.00;49.25;13.00;29.10;;;;;;4976359;28;8832;-63
2022/03/23 08:47:54;;;;;;;;;61.50;49.00;12.70;29.90;;;;;;4976640;28;8833;-63
2022/03/23 08:50:20;;;;;;;;;55.50;44.50;12.80;29.50;;;;;;4976059;28;8912;-63
2022/03/23 08:52:46;;;;;;;;;56.00;45.75;12.90;28.90;;;;;;4976495;28;8831;-63
2022/03/23 08:55:25;;;;;;;;;54.00;45.50;12.80;28.60;;;;;;4976422;28;9504;-63
2022/03/23 08:57:50;;;;;;;;;61.00;50.00;13.10;28.50;;;;;;4976694;28;9470;-63
2022/03/23 09:00:17;;;;;;;;;58.25;48.75;12.60;28.80;;;;;;4976625;28;8763;-63
2022/03/23 09:02:43;;;;;;;;;60.75;47.75;12.80;28.90;;;;;;4976128;28;8783;-63
2022/03/23 09:05:14;;;;;;;;;56.50;46.00;12.90;28.50;;;;;;4975906;28;8798;-62
2022/03/23 09:07:40;;;;;;;;;56.75;47.00;13.10;28.40;;;;;;4976291;28;8786;-62
2022/03/23 09:10:07;;;;;;;;;61.00;49.50;12.90;28.90;;;;;;4958991;28;8755;-62
2022/03/23 09:12:33;;;;;;;;;59.50;48.75;13.40;28.50;;;;;;4976277;28;8769;-62
2022/03/23 09:14:59;;;;;;;;;61.25;48.25;13.70;28.70;;;;;;4975662;28;8884;-63
2022/03/23 09:17:24;;;;;;;;;60.25;50.00;14.00;29.20;;;;;;4975976;28;8896;-63
2022/03/23 09:19:50;;;;;;;;;58.50;47.00;13.90;28.70;;;;;;4975403;28;8778;-62
2022/03/23 09:22:16;;;;;;;;;58.75;48.50;13.90;28.70;;;;;;4976307;28;8804;-62
2022/03/23 09:24:42;;;;;;;;;57.75;47.25;13.70;28.90;;;;;;4976098;28;8842;-62
2022/03/23 09:27:07;;;;;;;;;63.75;51.00;14.20;28.50;;;;;;4975529;28;8763;-62
2022/03/23 09:29:34;;;;;;;;;57.25;46.50;14.50;27.90;;;;;;4975842;28;8790;-63
2022/03/23 09:32:00;;;;;;;;;56.50;47.00;14.80;27.20;;;;;;4970839;28;8895;-64
2022/03/23 09:34:25;;;;;;;;;59.00;48.00;14.40;28.10;;;;;;4970356;28;8881;-62
2022/03/23 09:39:36;;;;;;;;;63.25;50.25;15.20;27.30;;;;;;4967913;28;8814;-63
2022/03/23 09:42:05;;;;;;;;;59.75;47.75;15.20;27.30;;;;;;4956410;28;8883;-63
2022/03/23 09:44:34;;;;;;;;;61.25;50.00;14.80;28.30;;;;;;4957023;28;8800;-63
2022/03/23 09:47:01;;;;;;;;;65.00;51.00;14.80;27.50;;;;;;4964702;28;8794;-63
2022/03/23 09:49:27;;;;;;;;;62.75;48.25;15.00;27.20;;;;;;4958401;28;8863;-63
2022/03/23 09:51:56;;;;;;;;;67.00;53.25;14.90;27.70;;;;;;4956312;28;8773;-63
2022/03/23 09:54:22;;;;;;;;;60.75;50.75;15.00;27.40;;;;;;4958255;28;8783;-62
2022/03/23 09:56:51;;;;;;;;;57.75;47.75;14.70;28.60;;;;;;4980132;28;8771;-64
2022/03/23 09:59:17;;;;;;;;;54.25;45.00;15.20;28.20;;;;;;4966313;28;8855;-64
2022/03/23 10:02:18;;;;;;;;;60.25;50.25;15.00;28.60;;;;;;4956479;28;8794;-63
2022/03/23 10:04:50;;;;;;;;;63.00;50.25;15.40;28.00;;;;;;4955513;28;8834;-64
2022/03/23 10:07:25;;;;;;;;;56.75;45.00;15.80;27.50;;;;;;4956026;29;8792;-64
2022/03/23 10:10:25;;;;;;;;;56.00;46.00;15.90;27.30;;;;;;4956341;29;8798;-64
2022/03/23 10:13:28;;;;;;;;;62.00;49.25;16.10;27.50;;;;;;4956114;29;8766;-64
2022/03/23 10:16:31;;;;;;;;;58.25;48.25;16.60;26.30;;;;;;4955796;29;8764;-64
2022/03/23 10:19:01;;;;;;;;;58.75;47.00;16.70;26.90;;;;;;4973597;28;8814;-64
2022/03/23 10:21:32;;;;;;;;;62.00;48.75;16.80;27.70;;;;;;4975264;28;8778;-64
2022/03/23 10:24:01;;;;;;;;;55.25;46.25;16.80;29.10;;;;;;4975223;28;8770;-64
2022/03/23 10:26:28;;;;;;;;;58.00;47.00;17.10;27.90;;;;;;4989813;28;8783;-64
2022/03/23 10:28:55;;;;;;;;;55.25;45.50;17.60;26.80;;;;;;4998952;28;8856;-65
2022/03/23 10:31:24;;;;;;;;;56.00;47.50;18.10;25.90;;;;;;4998476;28;8760;-64
2022/03/23 10:34:10;;;;;;;;;64.00;49.25;18.00;25.00;;;;;;4998111;28;8784;-64
2022/03/23 10:36:38;;;;;;;;;58.25;48.25;18.40;25.50;;;;;;4998775;28;9383;-64
2022/03/23 10:39:10;;;;;;;;;54.75;44.50;18.60;24.40;;;;;;4998283;28;8816;-65
2022/03/23 10:41:37;;;;;;;;;61.50;49.50;18.70;24.30;;;;;;4998396;28;8845;-65
2022/03/23 10:44:03;;;;;;;;;62.25;50.00;19.00;25.30;;;;;;4998399;28;8820;-65
2022/03/23 10:46:29;;;;;;;;;57.50;47.50;19.20;23.70;;;;;;4998331;28;8740;-65
2022/03/23 10:49:03;;;;;;;;;62.25;51.25;19.20;24.20;;;;;;4998050;28;8820;-64
2022/03/23 10:51:32;;;;;;;;;58.75;49.00;18.70;26.70;;;;;;4998020;28;8756;-64
2022/03/23 10:53:58;;;;;;;;;59.75;47.75;19.00;24.70;;;;;;4998220;28;8825;-64
2022/03/23 10:56:31;;;;;;;;;60.75;48.75;19.50;24.20;;;;;;4998357;28;8823;-64
2022/03/23 10:59:26;;;;;;;;;59.75;49.50;20.20;23.60;;;;;;4998354;28;9461;-64
2022/03/23 11:02:03;;;;;;;;;59.75;48.25;19.80;23.70;;;;;;4983176;28;8799;-64
2022/03/23 11:04:51;;;;;;;;;58.25;46.50;19.70;23.10;;;;;;4964972;28;8819;-64
2022/03/23 11:07:38;;;;;;;;;58.50;47.75;20.30;23.40;;;;;;4967911;28;8784;-63
2022/03/23 11:15:49;;;;;;;;;65.75;51.00;20.70;21.90;;;;;;4968896;28;8762;-65
2022/03/23 11:18:19;;;;;;;;;58.00;46.50;20.80;22.40;;;;;;4959550;28;8816;-64
2022/03/23 11:20:53;;;;;;;;;63.50;50.50;21.20;21.80;;;;;;4958854;28;8780;-66
2022/03/23 11:23:27;;;;;;;;;53.00;44.75;21.50;23.50;;;;;;4958943;28;8853;-66
2022/03/23 11:25:56;;;;;;;;;58.50;47.00;21.50;22.90;;;;;;4976729;28;8855;-66
2022/03/23 11:28:23;;;;;;;;;64.00;50.25;21.60;23.50;;;;;;4997744;28;8767;-66
2022/03/23 11:30:50;;;;;;;;;64.00;51.00;21.90;22.10;;;;;;4980328;28;8792;-64
2022/03/23 11:33:20;;;;;;;;;60.75;48.25;22.20;22.00;;;;;;4997214;28;8769;-66
2022/03/23 11:35:49;;;;;;;;;62.50;51.00;22.40;20.90;;;;;;4997066;28;9383;-66
2022/03/23 11:38:20;;;;;;;;;57.25;48.00;22.80;20.70;;;;;;4996842;28;9482;-66
2022/03/23 11:40:47;;;;;;;;;58.25;47.75;22.30;21.00;;;;;;4997554;28;8760;-66
2022/03/23 11:43:14;;;;;;;;;53.33;45.00;23.20;20.70;;;;;;4997286;28;8768;-66
2022/03/23 11:45:42;;;;;;;;;57.25;48.00;23.70;19.70;;;;;;4997401;28;8843;-66
2022/03/23 11:48:16;;;;;;;;;46.33;40.00;26.30;18.60;;;;;;4997280;28;8858;-66
2022/03/23 11:50:58;;;;;;;;;51.67;43.67;31.10;16.70;;;;;;4978604;28;8767;-64
2022/03/23 11:53:35;;;;;;;;;52.00;43.67;36.00;14.60;;;;;;4965530;28;8789;-65
2022/03/23 11:56:02;;;;;;;;;45.00;38.67;38.60;13.60;;;;;;4978129;28;8760;-66
2022/03/23 11:58:37;;;;;;;;;49.33;42.00;41.10;12.80;;;;;;4979652;28;8784;-66
2022/03/23 12:01:14;;;;;;;;;47.50;41.25;41.70;11.90;;;;;;4996653;28;8768;-65
2022/03/23 12:04:01;;;;;;;;;55.25;46.25;39.00;12.40;;;;;;4987607;28;8827;-65
2022/03/23 12:06:41;;;;;;;;;51.75;44.25;36.10;13.20;;;;;;4977321;28;8802;-65
2022/03/23 12:09:08;;;;;;;;;54.67;45.67;36.40;13.90;;;;;;4977467;28;8774;-65
2022/03/23 12:11:46;;;;;;;;;55.33;46.33;37.70;12.70;;;;;;4971271;28;8781;-65
2022/03/23 12:14:22;;;;;;;;;50.00;42.50;37.80;12.40;;;;;;4957917;28;8788;-65
2022/03/23 12:16:55;;;;;;;;;47.33;40.33;40.30;12.40;;;;;;4972940;28;8882;-65
2022/03/23 12:19:28;;;;;;;;;38.67;34.00;39.70;11.50;;;;;;4973403;28;8790;-64
2022/03/23 12:22:07;;;;;;;;;44.00;38.67;38.40;12.20;;;;;;4968071;28;8739;-65
2022/03/23 12:24:56;;;;;;;;;46.00;39.67;40.20;11.40;;;;;;4964844;28;8785;-65
2022/03/23 12:27:25;;;;;;;;;45.33;38.67;41.20;11.10;;;;;;4968432;28;8806;-64
2022/03/23 12:29:52;;;;;;;;;31.67;29.67;43.00;10.90;;;;;;4972954;28;8798;-63
2022/03/23 12:32:18;;;;;;;;;36.33;33.00;43.50;10.70;;;;;;4972442;28;8731;-63
2022/03/23 12:34:45;;;;;;;;;29.33;28.33;42.60;10.60;;;;;;4973648;28;8754;-63
2022/03/23 12:37:12;;;;;;;;;38.67;34.33;44.10;11.10;;;;;;4974234;28;8759;-70
2022/03/23 12:39:51;;;;;;;;;30.00;29.00;44.90;10.50;;;;;;4957353;28;8803;-65
2022/03/23 12:42:30;;;;;;;;;36.67;32.67;43.60;10.40;;;;;;4974684;28;9412;-65
2022/03/23 12:45:07;;;;;;;;;38.00;33.67;41.40;10.30;;;;;;4974358;28;8864;-64
2022/03/23 12:47:35;;;;;;;;;38.00;34.00;39.90;10.40;;;;;;4976569;28;8802;-65
2022/03/23 12:58:37;;;;;;;;;34.67;31.67;40.70;10.20;;;;;;4995837;28;8756;-66
2022/03/23 13:01:17;;;;;;;;;38.00;35.00;41.40;10.30;;;;;;4995674;28;8783;-64
2022/03/23 13:03:47;;;;;;;;;35.33;32.00;42.20;9.70;;;;;;4995671;28;9438;-64
2022/03/23 13:06:30;;;;;;;;;29.00;28.33;41.80;10.10;;;;;;4995553;28;8807;-69
2022/03/23 13:08:56;;;;;;;;;31.67;30.33;44.20;9.80;;;;;;4978463;28;8906;-69